sensor_id;sensor_type;location;lat;lon;timestamp;temperature;humidity
20831;DHT22;10576;53.556;9.868;2022-07-29T00:02:12;13.10;99.90
20831;DHT22;10576;53.556;9.868;2022-07-29T00:04:38;13.10;99.90
20831;DHT22;10576;53.556;9.868;2022-07-29T00:07:04;13.10;99.90
20831;DHT22;10576;53.556;9.868;2022-07-29T00:09:30;13.10;99.90
20831;DHT22;10576;53.556;9.868;2022-07-29T00:11:59;13.00;99.90
20831;DHT22;10576;53.556;9.868;2022-07-29T00:14:26;13.00;99.90
20831;DHT22;10576;53.556;9.868;2022-07-29T00:16:52;13.00;99.90
20831;DHT22;10576;53.556;9.868;2022-07-29T00:19:17;13.00;99.90
20831;DHT22;10576;53.556;9.868;2022-07-29T00:21:43;13.00;99.90
20831;DHT22;10576;53.556;9.868;2022-07-29T00:24:09;13.00;99.90
20831;DHT22;10576;53.556;9.868;2022-07-29T00:26:35;13.00;99.90
20831;DHT22;10576;53.556;9.868;2022-07-29T00:29:02;13.00;99.90
20831;DHT22;10576;53.556;9.868;2022-07-29T00:31:28;13.00;99.90
20831;DHT22;10576;53.556;9.868;2022-07-29T00:33:54;13.00;99.90
20831;DHT22;10576;53.556;9.868;2022-07-29T00:36:20;12.90;99.90
20831;DHT22;10576;53.556;9.868;2022-07-29T00:38:50;13.00;99.90
20831;DHT22;10576;53.556;9.868;2022-07-29T00:41:17;13.00;99.90
20831;DHT22;10576;53.556;9.868;2022-07-29T00:43:43;13.00;99.90
20831;DHT22;10576;53.556;9.868;2022-07-29T00:46:09;12.90;99.90
20831;DHT22;10576;53.556;9.868;2022-07-29T00:48:35;12.90;99.90
20831;DHT22;10576;53.556;9.868;2022-07-29T00:51:02;12.90;99.90
20831;DHT22;10576;53.556;9.868;2022-07-29T00:53:29;13.00;99.90
20831;DHT22;10576;53.556;9.868;2022-07-29T00:55:55;13.00;99.90
20831;DHT22;10576;53.556;9.868;2022-07-29T00:58:22;12.90;99.90
20831;DHT22;10576;53.556;9.868;2022-07-29T01:00:48;13.00;99.90
20831;DHT22;10576;53.556;9.868;2022-07-29T01:03:14;13.00;99.90
20831;DHT22;10576;53.556;9.868;2022-07-29T01:05:41;12.90;99.90
20831;DHT22;10576;53.556;9.868;2022-07-29T01:08:08;12.90;99.90
20831;DHT22;10576;53.556;9.868;2022-07-29T01:10:36;12.90;99.90
20831;DHT22;10576;53.556;9.868;2022-07-29T01:13:03;12.90;99.90
20831;DHT22;10576;53.556;9.868;2022-07-29T01:15:30;12.90;99.90
20831;DHT22;10576;53.556;9.868;2022-07-29T01:18:22;12.90;99.90
20831;DHT22;10576;53.556;9.868;2022-07-29T01:21:05;13.00;99.90
20831;DHT22;10576;53.556;9.868;2022-07-29T01:26:45;13.00;99.90
20831;DHT22;10576;53.556;9.868;2022-07-29T01:29:33;13.00;99.90
20831;DHT22;10576;53.556;9.868;2022-07-29T01:32:08;12.90;99.90
20831;DHT22;10576;53.556;9.868;2022-07-29T01:35:02;12.90;99.90
20831;DHT22;10576;53.556;9.868;2022-07-29T01:37:44;12.90;99.90
20831;DHT22;10576;53.556;9.868;2022-07-29T01:40:23;13.00;99.90
20831;DHT22;10576;53.556;9.868;2022-07-29T01:42:52;13.00;99.90
20831;DHT22;10576;53.556;9.868;2022-07-29T01:45:38;13.00;99.90
20831;DHT22;10576;53.556;9.868;2022-07-29T01:50:49;13.00;99.90
20831;DHT22;10576;53.556;9.868;2022-07-29T01:53:34;13.00;99.90
20831;DHT22;10576;53.556;9.868;2022-07-29T01:56:02;12.90;99.90
20831;DHT22;10576;53.556;9.868;2022-07-29T01:58:31;13.00;99.90
20831;DHT22;10576;53.556;9.868;2022-07-29T02:00:58;13.00;99.90
20831;DHT22;10576;53.556;9.868;2022-07-29T02:03:25;13.00;99.90
20831;DHT22;10576;53.556;9.868;2022-07-29T02:05:53;13.00;99.90
20831;DHT22;10576;53.556;9.868;2022-07-29T02:08:19;13.00;99.90
20831;DHT22;10576;53.556;9.868;2022-07-29T02:10:47;13.00;99.90
20831;DHT22;10576;53.556;9.868;2022-07-29T02:13:15;13.00;99.90
20831;DHT22;10576;53.556;9.868;2022-07-29T02:15:43;13.00;99.90
20831;DHT22;10576;53.556;9.868;2022-07-29T02:18:14;13.00;99.90
20831;DHT22;10576;53.556;9.868;2022-07-29T02:20:44;13.10;99.90
20831;DHT22;10576;53.556;9.868;2022-07-29T02:23:11;13.10;99.90
20831;DHT22;10576;53.556;9.868;2022-07-29T02:25:39;13.10;99.90
20831;DHT22;10576;53.556;9.868;2022-07-29T02:28:07;13.10;99.90
20831;DHT22;10576;53.556;9.868;2022-07-29T02:30:35;13.10;99.90
20831;DHT22;10576;53.556;9.868;2022-07-29T02:33:03;13.10;99.90
20831;DHT22;10576;53.556;9.868;2022-07-29T02:35:29;13.10;99.90
20831;DHT22;10576;53.556;9.868;2022-07-29T02:37:55;13.10;99.90
20831;DHT22;10576;53.556;9.868;2022-07-29T02:40:42;13.10;99.90
20831;DHT22;10576;53.556;9.868;2022-07-29T02:43:09;13.20;99.90
20831;DHT22;10576;53.556;9.868;2022-07-29T02:45:35;13.20;99.90
20831;DHT22;10576;53.556;9.868;2022-07-29T02:48:06;13.20;99.90
20831;DHT22;10576;53.556;9.868;2022-07-29T02:50:38;13.20;99.90
20831;DHT22;10576;53.556;9.868;2022-07-29T02:53:09;13.20;99.90
20831;DHT22;10576;53.556;9.868;2022-07-29T02:55:43;13.20;99.90
20831;DHT22;10576;53.556;9.868;2022-07-29T02:58:15;13.20;99.90
20831;DHT22;10576;53.556;9.868;2022-07-29T03:00:47;13.20;99.90
20831;DHT22;10576;53.556;9.868;2022-07-29T03:03:15;13.30;99.90
20831;DHT22;10576;53.556;9.868;2022-07-29T03:05:42;13.20;99.90
20831;DHT22;10576;53.556;9.868;2022-07-29T03:08:10;13.30;99.90
20831;DHT22;10576;53.556;9.868;2022-07-29T03:10:38;13.20;99.90
20831;DHT22;10576;53.556;9.868;2022-07-29T03:13:05;13.20;99.90
20831;DHT22;10576;53.556;9.868;2022-07-29T03:15:31;13.30;99.90
20831;DHT22;10576;53.556;9.868;2022-07-29T03:17:58;13.20;99.90
20831;DHT22;10576;53.556;9.868;2022-07-29T03:20:24;13.20;99.90
20831;DHT22;10576;53.556;9.868;2022-07-29T03:22:51;13.20;99.90
20831;DHT22;10576;53.556;9.868;2022-07-29T03:25:18;13.20;99.90
20831;DHT22;10576;53.556;9.868;2022-07-29T03:27:45;13.20;99.90
20831;DHT22;10576;53.556;9.868;2022-07-29T03:30:12;13.30;99.90
20831;DHT22;10576;53.556;9.868;2022-07-29T03:32:38;13.30;99.90
20831;DHT22;10576;53.556;9.868;2022-07-29T03:35:05;13.30;99.90
20831;DHT22;10576;53.556;9.868;2022-07-29T03:37:31;13.30;99.90
20831;DHT22;10576;53.556;9.868;2022-07-29T03:39:59;13.30;99.90
20831;DHT22;10576;53.556;9.868;2022-07-29T03:42:28;13.30;99.90
20831;DHT22;10576;53.556;9.868;2022-07-29T03:44:57;13.30;99.90
20831;DHT22;10576;53.556;9.868;2022-07-29T03:47:25;13.30;99.90
20831;DHT22;10576;53.556;9.868;2022-07-29T03:49:54;13.30;99.90
20831;DHT22;10576;53.556;9.868;2022-07-29T03:52:22;13.40;99.90
20831;DHT22;10576;53.556;9.868;2022-07-29T03:54:48;13.30;99.90
20831;DHT22;10576;53.556;9.868;2022-07-29T03:57:15;13.30;99.90
20831;DHT22;10576;53.556;9.868;2022-07-29T03:59:41;13.40;99.90
20831;DHT22;10576;53.556;9.868;2022-07-29T04:02:09;13.40;99.90
20831;DHT22;10576;53.556;9.868;2022-07-29T04:04:36;13.40;99.90
20831;DHT22;10576;53.556;9.868;2022-07-29T04:07:03;13.40;99.90
20831;DHT22;10576;53.556;9.868;2022-07-29T04:09:29;13.40;99.90
20831;DHT22;10576;53.556;9.868;2022-07-29T04:11:55;13.40;99.90
20831;DHT22;10576;53.556;9.868;2022-07-29T04:14:20;13.40;99.90
20831;DHT22;10576;53.556;9.868;2022-07-29T04:16:46;13.50;99.90
20831;DHT22;10576;53.556;9.868;2022-07-29T04:19:12;13.50;99.90
20831;DHT22;10576;53.556;9.868;2022-07-29T04:21:41;13.50;99.90
20831;DHT22;10576;53.556;9.868;2022-07-29T04:24:07;13.50;99.90
20831;DHT22;10576;53.556;9.868;2022-07-29T04:26:33;13.50;99.90
20831;DHT22;10576;53.556;9.868;2022-07-29T04:29:00;13.60;99.90
20831;DHT22;10576;53.556;9.868;2022-07-29T04:31:25;13.60;99.90
20831;DHT22;10576;53.556;9.868;2022-07-29T04:33:51;13.60;99.90
20831;DHT22;10576;53.556;9.868;2022-07-29T04:36:17;13.70;99.90
20831;DHT22;10576;53.556;9.868;2022-07-29T04:38:43;13.70;99.90
20831;DHT22;10576;53.556;9.868;2022-07-29T04:41:09;13.70;99.90
20831;DHT22;10576;53.556;9.868;2022-07-29T04:43:35;13.80;99.90
20831;DHT22;10576;53.556;9.868;2022-07-29T04:46:02;13.80;99.90
20831;DHT22;10576;53.556;9.868;2022-07-29T04:48:28;13.90;99.90
20831;DHT22;10576;53.556;9.868;2022-07-29T04:50:53;13.90;99.90
20831;DHT22;10576;53.556;9.868;2022-07-29T04:53:19;13.90;99.90
20831;DHT22;10576;53.556;9.868;2022-07-29T04:55:45;13.90;99.90
20831;DHT22;10576;53.556;9.868;2022-07-29T04:58:11;14.00;99.90
20831;DHT22;10576;53.556;9.868;2022-07-29T05:00:37;14.00;99.90
20831;DHT22;10576;53.556;9.868;2022-07-29T05:03:03;14.00;99.90
20831;DHT22;10576;53.556;9.868;2022-07-29T05:05:29;14.00;99.90
20831;DHT22;10576;53.556;9.868;2022-07-29T05:07:55;14.10;99.90
20831;DHT22;10576;53.556;9.868;2022-07-29T05:10:21;14.10;99.90
20831;DHT22;10576;53.556;9.868;2022-07-29T05:12:46;14.20;99.90
20831;DHT22;10576;53.556;9.868;2022-07-29T05:15:12;14.20;99.90
20831;DHT22;10576;53.556;9.868;2022-07-29T05:17:38;14.30;99.90
20831;DHT22;10576;53.556;9.868;2022-07-29T05:20:05;14.30;99.90
20831;DHT22;10576;53.556;9.868;2022-07-29T05:22:31;14.40;99.90
20831;DHT22;10576;53.556;9.868;2022-07-29T05:24:57;14.40;99.90
20831;DHT22;10576;53.556;9.868;2022-07-29T05:27:22;14.50;99.90
20831;DHT22;10576;53.556;9.868;2022-07-29T05:29:48;14.50;99.90
20831;DHT22;10576;53.556;9.868;2022-07-29T05:32:13;14.50;99.90
20831;DHT22;10576;53.556;9.868;2022-07-29T05:34:40;14.70;99.90
20831;DHT22;10576;53.556;9.868;2022-07-29T05:37:06;14.90;99.90
20831;DHT22;10576;53.556;9.868;2022-07-29T05:39:32;15.10;99.90
20831;DHT22;10576;53.556;9.868;2022-07-29T05:41:57;15.20;99.90
20831;DHT22;10576;53.556;9.868;2022-07-29T05:44:23;15.20;99.90
20831;DHT22;10576;53.556;9.868;2022-07-29T05:46:49;15.20;99.90
20831;DHT22;10576;53.556;9.868;2022-07-29T05:49:14;15.20;99.90
20831;DHT22;10576;53.556;9.868;2022-07-29T05:51:40;15.20;99.90
20831;DHT22;10576;53.556;9.868;2022-07-29T05:54:06;15.30;99.90
20831;DHT22;10576;53.556;9.868;2022-07-29T05:56:35;15.30;99.90
20831;DHT22;10576;53.556;9.868;2022-07-29T05:59:01;15.40;99.90
20831;DHT22;10576;53.556;9.868;2022-07-29T06:01:26;15.40;99.90
20831;DHT22;10576;53.556;9.868;2022-07-29T06:03:52;15.50;99.90
20831;DHT22;10576;53.556;9.868;2022-07-29T06:06:18;15.50;99.90
20831;DHT22;10576;53.556;9.868;2022-07-29T06:08:43;15.60;99.90
20831;DHT22;10576;53.556;9.868;2022-07-29T06:11:09;15.80;99.90
20831;DHT22;10576;53.556;9.868;2022-07-29T06:13:35;15.90;99.90
20831;DHT22;10576;53.556;9.868;2022-07-29T06:16:00;15.90;99.90
20831;DHT22;10576;53.556;9.868;2022-07-29T06:18:26;16.00;99.90
20831;DHT22;10576;53.556;9.868;2022-07-29T06:20:53;16.10;99.90
20831;DHT22;10576;53.556;9.868;2022-07-29T06:23:19;16.10;99.90
20831;DHT22;10576;53.556;9.868;2022-07-29T06:25:45;16.20;99.90
20831;DHT22;10576;53.556;9.868;2022-07-29T06:28:11;16.20;99.90
20831;DHT22;10576;53.556;9.868;2022-07-29T06:30:38;16.30;99.90
20831;DHT22;10576;53.556;9.868;2022-07-29T06:33:04;16.30;99.90
20831;DHT22;10576;53.556;9.868;2022-07-29T06:35:32;16.30;99.90
20831;DHT22;10576;53.556;9.868;2022-07-29T06:37:58;16.40;99.90
20831;DHT22;10576;53.556;9.868;2022-07-29T06:40:24;16.40;99.90
20831;DHT22;10576;53.556;9.868;2022-07-29T06:43:08;16.40;99.90
20831;DHT22;10576;53.556;9.868;2022-07-29T06:45:34;16.50;99.90
20831;DHT22;10576;53.556;9.868;2022-07-29T06:48:00;16.60;99.90
20831;DHT22;10576;53.556;9.868;2022-07-29T06:50:25;16.70;99.90
20831;DHT22;10576;53.556;9.868;2022-07-29T06:52:52;16.70;99.90
20831;DHT22;10576;53.556;9.868;2022-07-29T06:55:17;17.00;99.90
20831;DHT22;10576;53.556;9.868;2022-07-29T06:57:45;17.10;99.90
20831;DHT22;10576;53.556;9.868;2022-07-29T07:00:12;17.20;99.90
20831;DHT22;10576;53.556;9.868;2022-07-29T07:02:38;17.20;99.90
20831;DHT22;10576;53.556;9.868;2022-07-29T07:05:04;17.30;99.90
20831;DHT22;10576;53.556;9.868;2022-07-29T07:07:31;17.40;99.90
20831;DHT22;10576;53.556;9.868;2022-07-29T07:09:57;17.50;99.90
20831;DHT22;10576;53.556;9.868;2022-07-29T07:12:22;17.50;99.90
20831;DHT22;10576;53.556;9.868;2022-07-29T07:14:48;17.60;99.90
20831;DHT22;10576;53.556;9.868;2022-07-29T07:17:14;17.80;99.90
20831;DHT22;10576;53.556;9.868;2022-07-29T07:19:39;17.90;99.90
20831;DHT22;10576;53.556;9.868;2022-07-29T07:22:05;17.90;99.90
20831;DHT22;10576;53.556;9.868;2022-07-29T07:24:31;17.90;99.90
20831;DHT22;10576;53.556;9.868;2022-07-29T07:26:56;17.90;99.90
20831;DHT22;10576;53.556;9.868;2022-07-29T07:29:22;17.90;99.90
20831;DHT22;10576;53.556;9.868;2022-07-29T07:31:48;17.90;99.90
20831;DHT22;10576;53.556;9.868;2022-07-29T07:34:14;17.90;99.90
20831;DHT22;10576;53.556;9.868;2022-07-29T07:36:40;17.90;99.90
20831;DHT22;10576;53.556;9.868;2022-07-29T07:39:05;17.90;99.90
20831;DHT22;10576;53.556;9.868;2022-07-29T07:41:31;17.90;99.90
20831;DHT22;10576;53.556;9.868;2022-07-29T07:43:57;17.90;99.90
20831;DHT22;10576;53.556;9.868;2022-07-29T07:46:23;18.00;99.90
20831;DHT22;10576;53.556;9.868;2022-07-29T07:48:48;18.10;99.90
20831;DHT22;10576;53.556;9.868;2022-07-29T07:51:14;18.10;99.90
20831;DHT22;10576;53.556;9.868;2022-07-29T07:53:39;18.20;99.90
20831;DHT22;10576;53.556;9.868;2022-07-29T07:56:05;18.30;99.90
20831;DHT22;10576;53.556;9.868;2022-07-29T07:58:32;18.50;99.90
20831;DHT22;10576;53.556;9.868;2022-07-29T08:01:00;18.50;99.90
20831;DHT22;10576;53.556;9.868;2022-07-29T08:03:25;18.70;99.90
20831;DHT22;10576;53.556;9.868;2022-07-29T08:05:51;18.80;99.90
20831;DHT22;10576;53.556;9.868;2022-07-29T08:08:17;18.90;99.90
20831;DHT22;10576;53.556;9.868;2022-07-29T08:10:43;19.10;99.90
20831;DHT22;10576;53.556;9.868;2022-07-29T08:13:19;19.50;99.90
20831;DHT22;10576;53.556;9.868;2022-07-29T08:15:45;20.10;99.90
20831;DHT22;10576;53.556;9.868;2022-07-29T08:18:14;20.50;99.90
20831;DHT22;10576;53.556;9.868;2022-07-29T08:20:40;20.80;99.90
20831;DHT22;10576;53.556;9.868;2022-07-29T08:23:07;21.10;99.90
20831;DHT22;10576;53.556;9.868;2022-07-29T08:25:36;21.50;99.90
20831;DHT22;10576;53.556;9.868;2022-07-29T08:28:01;21.80;99.90
20831;DHT22;10576;53.556;9.868;2022-07-29T08:30:27;22.00;99.90
20831;DHT22;10576;53.556;9.868;2022-07-29T08:32:53;22.60;99.90
20831;DHT22;10576;53.556;9.868;2022-07-29T08:35:20;22.80;99.90
20831;DHT22;10576;53.556;9.868;2022-07-29T08:37:47;22.90;99.90
20831;DHT22;10576;53.556;9.868;2022-07-29T08:40:13;23.10;99.90
20831;DHT22;10576;53.556;9.868;2022-07-29T08:42:40;23.50;99.90
20831;DHT22;10576;53.556;9.868;2022-07-29T08:45:06;23.60;99.90
20831;DHT22;10576;53.556;9.868;2022-07-29T08:47:33;23.40;99.90
20831;DHT22;10576;53.556;9.868;2022-07-29T08:49:59;23.30;99.90
20831;DHT22;10576;53.556;9.868;2022-07-29T08:52:25;23.70;99.90
20831;DHT22;10576;53.556;9.868;2022-07-29T08:54:52;23.70;99.90
20831;DHT22;10576;53.556;9.868;2022-07-29T08:57:19;23.80;99.90
20831;DHT22;10576;53.556;9.868;2022-07-29T08:59:46;24.20;99.90
20831;DHT22;10576;53.556;9.868;2022-07-29T09:02:19;24.10;99.90
20831;DHT22;10576;53.556;9.868;2022-07-29T09:04:45;23.90;99.90
20831;DHT22;10576;53.556;9.868;2022-07-29T09:07:15;24.00;99.90
20831;DHT22;10576;53.556;9.868;2022-07-29T09:09:41;24.70;99.90
20831;DHT22;10576;53.556;9.868;2022-07-29T09:12:08;24.90;99.90
20831;DHT22;10576;53.556;9.868;2022-07-29T09:14:37;24.90;99.90
20831;DHT22;10576;53.556;9.868;2022-07-29T09:17:02;24.70;99.90
20831;DHT22;10576;53.556;9.868;2022-07-29T09:19:31;24.40;99.90
20831;DHT22;10576;53.556;9.868;2022-07-29T09:22:00;24.30;99.90
20831;DHT22;10576;53.556;9.868;2022-07-29T09:24:27;24.00;99.90
20831;DHT22;10576;53.556;9.868;2022-07-29T09:27:01;23.90;99.90
20831;DHT22;10576;53.556;9.868;2022-07-29T09:29:27;23.60;99.90
20831;DHT22;10576;53.556;9.868;2022-07-29T09:31:54;23.40;99.90
20831;DHT22;10576;53.556;9.868;2022-07-29T09:34:28;23.30;99.90
20831;DHT22;10576;53.556;9.868;2022-07-29T09:36:55;23.30;99.90
20831;DHT22;10576;53.556;9.868;2022-07-29T09:39:41;23.20;99.90
20831;DHT22;10576;53.556;9.868;2022-07-29T09:42:11;23.10;99.90
20831;DHT22;10576;53.556;9.868;2022-07-29T09:44:48;22.70;99.90
20831;DHT22;10576;53.556;9.868;2022-07-29T09:47:15;22.80;99.90
20831;DHT22;10576;53.556;9.868;2022-07-29T09:49:55;22.80;99.90
20831;DHT22;10576;53.556;9.868;2022-07-29T09:52:23;22.70;99.90
20831;DHT22;10576;53.556;9.868;2022-07-29T09:54:49;22.70;99.90
20831;DHT22;10576;53.556;9.868;2022-07-29T09:57:24;22.80;99.90
20831;DHT22;10576;53.556;9.868;2022-07-29T10:00:08;22.80;99.90
20831;DHT22;10576;53.556;9.868;2022-07-29T10:02:36;22.70;99.90
20831;DHT22;10576;53.556;9.868;2022-07-29T10:05:04;22.70;99.90
20831;DHT22;10576;53.556;9.868;2022-07-29T10:10:10;22.70;99.90
20831;DHT22;10576;53.556;9.868;2022-07-29T10:12:48;22.70;99.90
20831;DHT22;10576;53.556;9.868;2022-07-29T10:15:15;22.50;99.90
20831;DHT22;10576;53.556;9.868;2022-07-29T10:17:42;22.50;99.90
20831;DHT22;10576;53.556;9.868;2022-07-29T10:20:08;22.40;99.90
20831;DHT22;10576;53.556;9.868;2022-07-29T10:22:34;22.40;99.90
20831;DHT22;10576;53.556;9.868;2022-07-29T10:25:00;22.30;99.90
20831;DHT22;10576;53.556;9.868;2022-07-29T10:27:26;22.20;99.90
20831;DHT22;10576;53.556;9.868;2022-07-29T10:29:53;22.30;99.90
20831;DHT22;10576;53.556;9.868;2022-07-29T10:38:04;22.50;99.90
20831;DHT22;10576;53.556;9.868;2022-07-29T10:44:08;22.50;99.90
20831;DHT22;10576;53.556;9.868;2022-07-29T10:46:35;22.50;99.90
20831;DHT22;10576;53.556;9.868;2022-07-29T10:49:24;22.50;99.90
20831;DHT22;10576;53.556;9.868;2022-07-29T11:05:23;24.10;99.90
20831;DHT22;10576;53.556;9.868;2022-07-29T11:08:25;24.30;99.90
20831;DHT22;10576;53.556;9.868;2022-07-29T11:10:52;24.30;99.90
20831;DHT22;10576;53.556;9.868;2022-07-29T11:16:17;25.00;99.90
20831;DHT22;10576;53.556;9.868;2022-07-29T11:19:20;25.40;99.90
20831;DHT22;10576;53.556;9.868;2022-07-29T11:21:46;25.50;99.90
20831;DHT22;10576;53.556;9.868;2022-07-29T11:24:31;25.40;99.90
20831;DHT22;10576;53.556;9.868;2022-07-29T11:29:49;25.10;99.90
20831;DHT22;10576;53.556;9.868;2022-07-29T11:32:15;25.10;99.90
20831;DHT22;10576;53.556;9.868;2022-07-29T11:34:44;25.20;99.90
20831;DHT22;10576;53.556;9.868;2022-07-29T11:39:38;25.10;99.90
20831;DHT22;10576;53.556;9.868;2022-07-29T11:45:01;25.10;99.90
20831;DHT22;10576;53.556;9.868;2022-07-29T11:47:30;24.90;99.90
20831;DHT22;10576;53.556;9.868;2022-07-29T11:49:58;25.10;99.90
20831;DHT22;10576;53.556;9.868;2022-07-29T11:52:32;25.20;99.90
20831;DHT22;10576;53.556;9.868;2022-07-29T11:55:01;25.30;99.90
20831;DHT22;10576;53.556;9.868;2022-07-29T11:57:28;25.50;99.90
20831;DHT22;10576;53.556;9.868;2022-07-29T11:59:55;25.70;99.90
20831;DHT22;10576;53.556;9.868;2022-07-29T12:02:23;26.10;99.90
20831;DHT22;10576;53.556;9.868;2022-07-29T12:04:53;26.30;99.90
20831;DHT22;10576;53.556;9.868;2022-07-29T12:07:31;26.50;99.90
20831;DHT22;10576;53.556;9.868;2022-07-29T12:09:57;26.60;99.90
20831;DHT22;10576;53.556;9.868;2022-07-29T12:12:23;26.90;99.90
20831;DHT22;10576;53.556;9.868;2022-07-29T12:14:49;26.70;99.90
20831;DHT22;10576;53.556;9.868;2022-07-29T12:17:45;26.40;99.90
20831;DHT22;10576;53.556;9.868;2022-07-29T12:20:10;26.20;99.90
20831;DHT22;10576;53.556;9.868;2022-07-29T12:22:41;26.00;99.90
20831;DHT22;10576;53.556;9.868;2022-07-29T12:25:12;25.90;99.90
20831;DHT22;10576;53.556;9.868;2022-07-29T12:27:41;25.90;99.90
20831;DHT22;10576;53.556;9.868;2022-07-29T12:30:11;26.00;99.90
20831;DHT22;10576;53.556;9.868;2022-07-29T12:32:45;26.20;99.90
20831;DHT22;10576;53.556;9.868;2022-07-29T12:35:14;26.40;99.90
20831;DHT22;10576;53.556;9.868;2022-07-29T12:37:41;26.50;99.90
20831;DHT22;10576;53.556;9.868;2022-07-29T12:40:09;26.50;99.90
20831;DHT22;10576;53.556;9.868;2022-07-29T12:42:36;26.30;99.90
20831;DHT22;10576;53.556;9.868;2022-07-29T12:45:03;26.10;99.90
20831;DHT22;10576;53.556;9.868;2022-07-29T12:47:29;26.10;99.90
20831;DHT22;10576;53.556;9.868;2022-07-29T12:50:12;26.30;99.90
20831;DHT22;10576;53.556;9.868;2022-07-29T12:52:40;26.30;99.90
20831;DHT22;10576;53.556;9.868;2022-07-29T12:55:06;26.30;99.90
20831;DHT22;10576;53.556;9.868;2022-07-29T12:57:47;26.50;99.90
20831;DHT22;10576;53.556;9.868;2022-07-29T13:00:14;26.60;99.90
20831;DHT22;10576;53.556;9.868;2022-07-29T13:02:41;26.70;99.90
20831;DHT22;10576;53.556;9.868;2022-07-29T13:05:09;26.80;99.90
20831;DHT22;10576;53.556;9.868;2022-07-29T13:07:35;26.80;99.90
20831;DHT22;10576;53.556;9.868;2022-07-29T13:10:15;26.80;99.90
20831;DHT22;10576;53.556;9.868;2022-07-29T13:13:11;26.70;99.90
20831;DHT22;10576;53.556;9.868;2022-07-29T13:15:42;26.70;99.90
20831;DHT22;10576;53.556;9.868;2022-07-29T13:18:28;26.60;99.90
20831;DHT22;10576;53.556;9.868;2022-07-29T13:20:55;26.80;99.90
20831;DHT22;10576;53.556;9.868;2022-07-29T13:23:20;26.70;99.90
20831;DHT22;10576;53.556;9.868;2022-07-29T13:25:46;26.60;99.90
20831;DHT22;10576;53.556;9.868;2022-07-29T13:28:12;26.50;99.90
20831;DHT22;10576;53.556;9.868;2022-07-29T13:30:39;26.60;99.90
20831;DHT22;10576;53.556;9.868;2022-07-29T13:33:06;26.70;99.90
20831;DHT22;10576;53.556;9.868;2022-07-29T13:35:31;26.80;99.90
20831;DHT22;10576;53.556;9.868;2022-07-29T13:37:57;26.80;99.90
20831;DHT22;10576;53.556;9.868;2022-07-29T13:40:23;26.80;99.90
20831;DHT22;10576;53.556;9.868;2022-07-29T13:42:49;26.80;99.90
20831;DHT22;10576;53.556;9.868;2022-07-29T13:45:15;26.80;99.90
20831;DHT22;10576;53.556;9.868;2022-07-29T13:47:41;26.80;99.90
20831;DHT22;10576;53.556;9.868;2022-07-29T13:50:08;26.80;99.90
20831;DHT22;10576;53.556;9.868;2022-07-29T13:52:35;26.90;99.90
20831;DHT22;10576;53.556;9.868;2022-07-29T13:55:02;26.90;99.90
20831;DHT22;10576;53.556;9.868;2022-07-29T13:57:28;26.80;99.90
20831;DHT22;10576;53.556;9.868;2022-07-29T13:59:54;26.50;99.90
20831;DHT22;10576;53.556;9.868;2022-07-29T14:02:20;26.40;99.90
20831;DHT22;10576;53.556;9.868;2022-07-29T14:04:46;26.30;99.90
20831;DHT22;10576;53.556;9.868;2022-07-29T14:07:12;26.10;99.90
20831;DHT22;10576;53.556;9.868;2022-07-29T14:09:38;25.80;99.90
20831;DHT22;10576;53.556;9.868;2022-07-29T14:12:03;25.60;99.90
20831;DHT22;10576;53.556;9.868;2022-07-29T14:14:29;25.50;99.90
20831;DHT22;10576;53.556;9.868;2022-07-29T14:16:57;25.30;99.90
20831;DHT22;10576;53.556;9.868;2022-07-29T14:19:22;25.10;99.90
20831;DHT22;10576;53.556;9.868;2022-07-29T14:21:48;24.90;99.90
20831;DHT22;10576;53.556;9.868;2022-07-29T14:24:13;24.80;99.90
20831;DHT22;10576;53.556;9.868;2022-07-29T14:26:39;24.70;99.90
20831;DHT22;10576;53.556;9.868;2022-07-29T14:29:05;24.50;99.90
20831;DHT22;10576;53.556;9.868;2022-07-29T14:31:30;24.50;99.90
20831;DHT22;10576;53.556;9.868;2022-07-29T14:33:56;24.40;99.90
20831;DHT22;10576;53.556;9.868;2022-07-29T14:36:22;24.30;99.90
20831;DHT22;10576;53.556;9.868;2022-07-29T14:38:47;24.30;99.90
20831;DHT22;10576;53.556;9.868;2022-07-29T14:41:13;24.30;99.90
20831;DHT22;10576;53.556;9.868;2022-07-29T14:43:41;24.30;99.90
20831;DHT22;10576;53.556;9.868;2022-07-29T14:46:06;24.40;99.90
20831;DHT22;10576;53.556;9.868;2022-07-29T14:48:33;24.50;99.90
20831;DHT22;10576;53.556;9.868;2022-07-29T14:50:58;24.60;99.90
20831;DHT22;10576;53.556;9.868;2022-07-29T14:53:24;24.60;99.90
20831;DHT22;10576;53.556;9.868;2022-07-29T14:55:50;24.50;99.90
20831;DHT22;10576;53.556;9.868;2022-07-29T14:58:16;24.20;99.90
20831;DHT22;10576;53.556;9.868;2022-07-29T15:00:41;24.00;99.90
20831;DHT22;10576;53.556;9.868;2022-07-29T15:03:07;23.90;99.90
20831;DHT22;10576;53.556;9.868;2022-07-29T15:05:35;23.70;99.90
20831;DHT22;10576;53.556;9.868;2022-07-29T15:08:02;23.70;99.90
20831;DHT22;10576;53.556;9.868;2022-07-29T15:10:28;23.70;99.90
20831;DHT22;10576;53.556;9.868;2022-07-29T15:12:55;23.70;99.90
20831;DHT22;10576;53.556;9.868;2022-07-29T15:15:21;23.70;99.90
20831;DHT22;10576;53.556;9.868;2022-07-29T15:17:47;23.50;99.90
20831;DHT22;10576;53.556;9.868;2022-07-29T15:20:13;23.40;99.90
20831;DHT22;10576;53.556;9.868;2022-07-29T15:22:39;23.40;99.90
20831;DHT22;10576;53.556;9.868;2022-07-29T15:25:07;23.30;99.90
20831;DHT22;10576;53.556;9.868;2022-07-29T15:27:32;23.20;99.90
20831;DHT22;10576;53.556;9.868;2022-07-29T15:29:58;23.20;99.90
20831;DHT22;10576;53.556;9.868;2022-07-29T15:32:24;23.30;99.90
20831;DHT22;10576;53.556;9.868;2022-07-29T15:34:49;23.40;99.90
20831;DHT22;10576;53.556;9.868;2022-07-29T15:37:15;23.30;99.90
20831;DHT22;10576;53.556;9.868;2022-07-29T15:39:41;23.30;99.90
20831;DHT22;10576;53.556;9.868;2022-07-29T15:42:06;23.30;99.90
20831;DHT22;10576;53.556;9.868;2022-07-29T15:44:32;23.30;99.90
20831;DHT22;10576;53.556;9.868;2022-07-29T15:46:58;23.30;99.90
20831;DHT22;10576;53.556;9.868;2022-07-29T15:49:38;23.40;99.90
20831;DHT22;10576;53.556;9.868;2022-07-29T15:52:06;23.30;99.90
20831;DHT22;10576;53.556;9.868;2022-07-29T15:54:33;23.20;99.90
20831;DHT22;10576;53.556;9.868;2022-07-29T15:56:59;23.20;99.90
20831;DHT22;10576;53.556;9.868;2022-07-29T15:59:25;23.20;99.90
20831;DHT22;10576;53.556;9.868;2022-07-29T16:01:51;23.20;99.90
20831;DHT22;10576;53.556;9.868;2022-07-29T16:04:17;23.10;99.90
20831;DHT22;10576;53.556;9.868;2022-07-29T16:06:44;23.10;99.90
20831;DHT22;10576;53.556;9.868;2022-07-29T16:09:10;23.00;99.90
20831;DHT22;10576;53.556;9.868;2022-07-29T16:11:36;23.00;99.90
20831;DHT22;10576;53.556;9.868;2022-07-29T16:14:02;23.00;99.90
20831;DHT22;10576;53.556;9.868;2022-07-29T16:16:27;22.90;99.90
20831;DHT22;10576;53.556;9.868;2022-07-29T16:18:53;22.80;99.90